<?xml version="1.0" encoding="UTF-8" standalone="no" ?>
<gpx xmlns="http://www.topografix.com/GPX/1/1" xmlns:xsi="http://www.w3.org/2001/XMLSchema-instance" xsi:schemaLocation="http://www.topografix.com/GPX/1/1 http://www.topografix.com/GPX/1/1/gpx.xsd" version="1.1" creator="VisuGPX - https://www.visugpx.com">
  <metadata>
    <name>Lac des Olivettes</name>
    <desc><![CDATA[Petite rando facile entre littoral Languedocien et Vallée de L'Orb]]></desc>
  </metadata>
  <trk>
    <name><![CDATA[Day 16-MARS-16 15:33:36]]></name>
    <trkseg>
      <trkpt lat="43.55806" lon="3.29591">
        <ele>105.88</ele>
        <time>2016-03-16T14:33:36Z</time>
      </trkpt>
      <trkpt lat="43.55804" lon="3.29595">
        <ele>143.37</ele>
        <time>2016-03-16T14:34:55Z</time>
      </trkpt>
      <trkpt lat="43.55813" lon="3.296">
        <ele>143.85</ele>
        <time>2016-03-16T14:36:31Z</time>
      </trkpt>
      <trkpt lat="43.55823" lon="3.29597">
        <ele>138.57</ele>
        <time>2016-03-16T14:36:39Z</time>
      </trkpt>
      <trkpt lat="43.55834" lon="3.29596">
        <ele>138.09</ele>
        <time>2016-03-16T14:36:49Z</time>
      </trkpt>
      <trkpt lat="43.55838" lon="3.29582">
        <ele>139.05</ele>
        <time>2016-03-16T14:36:58Z</time>
      </trkpt>
      <trkpt lat="43.55845" lon="3.29571">
        <ele>138.57</ele>
        <time>2016-03-16T14:37:07Z</time>
      </trkpt>
      <trkpt lat="43.55857" lon="3.2956">
        <ele>138.09</ele>
        <time>2016-03-16T14:37:22Z</time>
      </trkpt>
      <trkpt lat="43.55867" lon="3.29551">
        <ele>141.45</ele>
        <time>2016-03-16T14:37:30Z</time>
      </trkpt>
      <trkpt lat="43.55875" lon="3.29543">
        <ele>146.26</ele>
        <time>2016-03-16T14:37:41Z</time>
      </trkpt>
      <trkpt lat="43.55883" lon="3.29537">
        <ele>149.62</ele>
        <time>2016-03-16T14:37:48Z</time>
      </trkpt>
      <trkpt lat="43.55892" lon="3.29531">
        <ele>152.99</ele>
        <time>2016-03-16T14:37:56Z</time>
      </trkpt>
      <trkpt lat="43.55902" lon="3.29527">
        <ele>156.83</ele>
        <time>2016-03-16T14:38:03Z</time>
      </trkpt>
      <trkpt lat="43.55912" lon="3.29524">
        <ele>162.6</ele>
        <time>2016-03-16T14:38:13Z</time>
      </trkpt>
      <trkpt lat="43.5592" lon="3.29519">
        <ele>165.96</ele>
        <time>2016-03-16T14:38:22Z</time>
      </trkpt>
      <trkpt lat="43.55929" lon="3.29511">
        <ele>169.81</ele>
        <time>2016-03-16T14:38:32Z</time>
      </trkpt>
      <trkpt lat="43.55938" lon="3.29501">
        <ele>170.77</ele>
        <time>2016-03-16T14:38:42Z</time>
      </trkpt>
      <trkpt lat="43.55948" lon="3.29492">
        <ele>171.73</ele>
        <time>2016-03-16T14:38:51Z</time>
      </trkpt>
      <trkpt lat="43.55958" lon="3.29482">
        <ele>171.25</ele>
        <time>2016-03-16T14:38:59Z</time>
      </trkpt>
      <trkpt lat="43.55968" lon="3.29472">
        <ele>171.25</ele>
        <time>2016-03-16T14:39:10Z</time>
      </trkpt>
      <trkpt lat="43.55977" lon="3.2946">
        <ele>170.77</ele>
        <time>2016-03-16T14:39:23Z</time>
      </trkpt>
      <trkpt lat="43.55991" lon="3.29462">
        <ele>168.85</ele>
        <time>2016-03-16T14:39:32Z</time>
      </trkpt>
      <trkpt lat="43.55994" lon="3.29472">
        <ele>164.04</ele>
        <time>2016-03-16T14:39:40Z</time>
      </trkpt>
      <trkpt lat="43.55993" lon="3.29485">
        <ele>160.68</ele>
        <time>2016-03-16T14:39:49Z</time>
      </trkpt>
      <trkpt lat="43.5599" lon="3.29497">
        <ele>156.35</ele>
        <time>2016-03-16T14:39:59Z</time>
      </trkpt>
      <trkpt lat="43.55987" lon="3.29512">
        <ele>156.83</ele>
        <time>2016-03-16T14:40:08Z</time>
      </trkpt>
      <trkpt lat="43.55987" lon="3.29526">
        <ele>160.2</ele>
        <time>2016-03-16T14:40:16Z</time>
      </trkpt>
      <trkpt lat="43.55984" lon="3.2954">
        <ele>163.08</ele>
        <time>2016-03-16T14:40:24Z</time>
      </trkpt>
      <trkpt lat="43.55982" lon="3.29554">
        <ele>166.93</ele>
        <time>2016-03-16T14:40:33Z</time>
      </trkpt>
      <trkpt lat="43.55983" lon="3.29568">
        <ele>166.93</ele>
        <time>2016-03-16T14:40:41Z</time>
      </trkpt>
      <trkpt lat="43.55985" lon="3.29583">
        <ele>165.48</ele>
        <time>2016-03-16T14:40:51Z</time>
      </trkpt>
      <trkpt lat="43.55985" lon="3.29598">
        <ele>166.45</ele>
        <time>2016-03-16T14:40:59Z</time>
      </trkpt>
      <trkpt lat="43.55986" lon="3.29613">
        <ele>169.81</ele>
        <time>2016-03-16T14:41:07Z</time>
      </trkpt>
      <trkpt lat="43.55989" lon="3.29626">
        <ele>170.29</ele>
        <time>2016-03-16T14:41:15Z</time>
      </trkpt>
      <trkpt lat="43.55993" lon="3.29639">
        <ele>172.69</ele>
        <time>2016-03-16T14:41:25Z</time>
      </trkpt>
      <trkpt lat="43.55999" lon="3.29652">
        <ele>172.69</ele>
        <time>2016-03-16T14:41:34Z</time>
      </trkpt>
      <trkpt lat="43.56005" lon="3.29664">
        <ele>172.69</ele>
        <time>2016-03-16T14:41:41Z</time>
      </trkpt>
      <trkpt lat="43.5601" lon="3.29678">
        <ele>173.66</ele>
        <time>2016-03-16T14:41:50Z</time>
      </trkpt>
      <trkpt lat="43.56014" lon="3.2969">
        <ele>173.17</ele>
        <time>2016-03-16T14:41:58Z</time>
      </trkpt>
      <trkpt lat="43.56021" lon="3.29705">
        <ele>174.62</ele>
        <time>2016-03-16T14:42:05Z</time>
      </trkpt>
      <trkpt lat="43.56031" lon="3.29713">
        <ele>176.06</ele>
        <time>2016-03-16T14:42:13Z</time>
      </trkpt>
      <trkpt lat="43.5604" lon="3.29721">
        <ele>176.54</ele>
        <time>2016-03-16T14:42:21Z</time>
      </trkpt>
      <trkpt lat="43.5605" lon="3.29725">
        <ele>176.54</ele>
        <time>2016-03-16T14:42:29Z</time>
      </trkpt>
      <trkpt lat="43.56061" lon="3.29731">
        <ele>175.1</ele>
        <time>2016-03-16T14:42:39Z</time>
      </trkpt>
      <trkpt lat="43.56072" lon="3.29743">
        <ele>172.69</ele>
        <time>2016-03-16T14:42:47Z</time>
      </trkpt>
      <trkpt lat="43.56073" lon="3.29758">
        <ele>170.77</ele>
        <time>2016-03-16T14:42:56Z</time>
      </trkpt>
      <trkpt lat="43.56066" lon="3.29768">
        <ele>173.17</ele>
        <time>2016-03-16T14:43:03Z</time>
      </trkpt>
      <trkpt lat="43.56061" lon="3.29779">
        <ele>172.69</ele>
        <time>2016-03-16T14:43:11Z</time>
      </trkpt>
      <trkpt lat="43.5606" lon="3.29793">
        <ele>171.73</ele>
        <time>2016-03-16T14:43:21Z</time>
      </trkpt>
      <trkpt lat="43.56064" lon="3.29806">
        <ele>171.25</ele>
        <time>2016-03-16T14:43:31Z</time>
      </trkpt>
      <trkpt lat="43.5607" lon="3.29817">
        <ele>170.77</ele>
        <time>2016-03-16T14:43:40Z</time>
      </trkpt>
      <trkpt lat="43.56076" lon="3.29828">
        <ele>170.29</ele>
        <time>2016-03-16T14:43:48Z</time>
      </trkpt>
      <trkpt lat="43.5608" lon="3.2984">
        <ele>169.33</ele>
        <time>2016-03-16T14:43:57Z</time>
      </trkpt>
      <trkpt lat="43.56084" lon="3.29852">
        <ele>170.29</ele>
        <time>2016-03-16T14:44:07Z</time>
      </trkpt>
      <trkpt lat="43.56091" lon="3.29863">
        <ele>171.25</ele>
        <time>2016-03-16T14:44:18Z</time>
      </trkpt>
      <trkpt lat="43.561" lon="3.29871">
        <ele>172.21</ele>
        <time>2016-03-16T14:44:27Z</time>
      </trkpt>
      <trkpt lat="43.5611" lon="3.29878">
        <ele>173.66</ele>
        <time>2016-03-16T14:44:36Z</time>
      </trkpt>
      <trkpt lat="43.56119" lon="3.29886">
        <ele>174.62</ele>
        <time>2016-03-16T14:44:46Z</time>
      </trkpt>
      <trkpt lat="43.56128" lon="3.29896">
        <ele>174.14</ele>
        <time>2016-03-16T14:44:56Z</time>
      </trkpt>
      <trkpt lat="43.56135" lon="3.29904">
        <ele>173.17</ele>
        <time>2016-03-16T14:45:04Z</time>
      </trkpt>
      <trkpt lat="43.56142" lon="3.29915">
        <ele>171.73</ele>
        <time>2016-03-16T14:45:13Z</time>
      </trkpt>
      <trkpt lat="43.5615" lon="3.29924">
        <ele>170.29</ele>
        <time>2016-03-16T14:45:21Z</time>
      </trkpt>
      <trkpt lat="43.56159" lon="3.29931">
        <ele>170.77</ele>
        <time>2016-03-16T14:45:29Z</time>
      </trkpt>
      <trkpt lat="43.56168" lon="3.29938">
        <ele>170.77</ele>
        <time>2016-03-16T14:45:37Z</time>
      </trkpt>
      <trkpt lat="43.56177" lon="3.29944">
        <ele>171.25</ele>
        <time>2016-03-16T14:45:45Z</time>
      </trkpt>
      <trkpt lat="43.56187" lon="3.29948">
        <ele>170.77</ele>
        <time>2016-03-16T14:45:54Z</time>
      </trkpt>
      <trkpt lat="43.56197" lon="3.29949">
        <ele>169.81</ele>
        <time>2016-03-16T14:46:03Z</time>
      </trkpt>
      <trkpt lat="43.56204" lon="3.29939">
        <ele>169.81</ele>
        <time>2016-03-16T14:46:11Z</time>
      </trkpt>
      <trkpt lat="43.56205" lon="3.29928">
        <ele>168.85</ele>
        <time>2016-03-16T14:46:18Z</time>
      </trkpt>
      <trkpt lat="43.56207" lon="3.29914">
        <ele>168.37</ele>
        <time>2016-03-16T14:46:28Z</time>
      </trkpt>
      <trkpt lat="43.56204" lon="3.29899">
        <ele>166.93</ele>
        <time>2016-03-16T14:46:37Z</time>
      </trkpt>
      <trkpt lat="43.56205" lon="3.29884">
        <ele>165.48</ele>
        <time>2016-03-16T14:46:46Z</time>
      </trkpt>
      <trkpt lat="43.56203" lon="3.2987">
        <ele>164.52</ele>
        <time>2016-03-16T14:46:54Z</time>
      </trkpt>
      <trkpt lat="43.56203" lon="3.29853">
        <ele>162.6</ele>
        <time>2016-03-16T14:47:03Z</time>
      </trkpt>
      <trkpt lat="43.56203" lon="3.2984">
        <ele>158.75</ele>
        <time>2016-03-16T14:47:12Z</time>
      </trkpt>
      <trkpt lat="43.56205" lon="3.29823">
        <ele>157.31</ele>
        <time>2016-03-16T14:47:23Z</time>
      </trkpt>
      <trkpt lat="43.56202" lon="3.29807">
        <ele>155.39</ele>
        <time>2016-03-16T14:47:33Z</time>
      </trkpt>
      <trkpt lat="43.56204" lon="3.2979">
        <ele>152.03</ele>
        <time>2016-03-16T14:47:44Z</time>
      </trkpt>
      <trkpt lat="43.56204" lon="3.29775">
        <ele>149.62</ele>
        <time>2016-03-16T14:47:53Z</time>
      </trkpt>
      <trkpt lat="43.56204" lon="3.2976">
        <ele>149.62</ele>
        <time>2016-03-16T14:48:01Z</time>
      </trkpt>
      <trkpt lat="43.56202" lon="3.29746">
        <ele>148.66</ele>
        <time>2016-03-16T14:48:10Z</time>
      </trkpt>
      <trkpt lat="43.56202" lon="3.29713">
        <ele>160.2</ele>
        <time>2016-03-16T14:48:21Z</time>
      </trkpt>
      <trkpt lat="43.56204" lon="3.29705">
        <ele>161.16</ele>
        <time>2016-03-16T14:48:43Z</time>
      </trkpt>
      <trkpt lat="43.56207" lon="3.29688">
        <ele>158.27</ele>
        <time>2016-03-16T14:48:54Z</time>
      </trkpt>
      <trkpt lat="43.56213" lon="3.29674">
        <ele>155.87</ele>
        <time>2016-03-16T14:49:03Z</time>
      </trkpt>
      <trkpt lat="43.56216" lon="3.29657">
        <ele>152.51</ele>
        <time>2016-03-16T14:49:12Z</time>
      </trkpt>
      <trkpt lat="43.56222" lon="3.29645">
        <ele>149.62</ele>
        <time>2016-03-16T14:49:22Z</time>
      </trkpt>
      <trkpt lat="43.56227" lon="3.29626">
        <ele>147.7</ele>
        <time>2016-03-16T14:49:33Z</time>
      </trkpt>
      <trkpt lat="43.56234" lon="3.29607">
        <ele>146.74</ele>
        <time>2016-03-16T14:49:43Z</time>
      </trkpt>
      <trkpt lat="43.56244" lon="3.29584">
        <ele>149.62</ele>
        <time>2016-03-16T14:49:51Z</time>
      </trkpt>
      <trkpt lat="43.56249" lon="3.29566">
        <ele>152.03</ele>
        <time>2016-03-16T14:49:59Z</time>
      </trkpt>
      <trkpt lat="43.56251" lon="3.29553">
        <ele>154.91</ele>
        <time>2016-03-16T14:50:08Z</time>
      </trkpt>
      <trkpt lat="43.56256" lon="3.29539">
        <ele>155.87</ele>
        <time>2016-03-16T14:50:17Z</time>
      </trkpt>
      <trkpt lat="43.56259" lon="3.29527">
        <ele>154.91</ele>
        <time>2016-03-16T14:50:26Z</time>
      </trkpt>
      <trkpt lat="43.56263" lon="3.2951">
        <ele>157.31</ele>
        <time>2016-03-16T14:50:34Z</time>
      </trkpt>
      <trkpt lat="43.56271" lon="3.29495">
        <ele>162.12</ele>
        <time>2016-03-16T14:50:42Z</time>
      </trkpt>
      <trkpt lat="43.5628" lon="3.29486">
        <ele>162.6</ele>
        <time>2016-03-16T14:50:50Z</time>
      </trkpt>
      <trkpt lat="43.56291" lon="3.29477">
        <ele>165.48</ele>
        <time>2016-03-16T14:50:59Z</time>
      </trkpt>
      <trkpt lat="43.56299" lon="3.29467">
        <ele>165.96</ele>
        <time>2016-03-16T14:51:06Z</time>
      </trkpt>
      <trkpt lat="43.56309" lon="3.29465">
        <ele>165</ele>
        <time>2016-03-16T14:51:25Z</time>
      </trkpt>
      <trkpt lat="43.56317" lon="3.29472">
        <ele>160.68</ele>
        <time>2016-03-16T14:51:39Z</time>
      </trkpt>
      <trkpt lat="43.56329" lon="3.29479">
        <ele>157.79</ele>
        <time>2016-03-16T14:52:16Z</time>
      </trkpt>
      <trkpt lat="43.56329" lon="3.2948">
        <ele>158.75</ele>
        <time>2016-03-16T14:54:19Z</time>
      </trkpt>
      <trkpt lat="43.56323" lon="3.29479">
        <ele>159.24</ele>
        <time>2016-03-16T14:54:41Z</time>
      </trkpt>
      <trkpt lat="43.56314" lon="3.29469">
        <ele>161.64</ele>
        <time>2016-03-16T14:54:59Z</time>
      </trkpt>
      <trkpt lat="43.56308" lon="3.29455">
        <ele>164.52</ele>
        <time>2016-03-16T14:55:13Z</time>
      </trkpt>
      <trkpt lat="43.56311" lon="3.29441">
        <ele>166.93</ele>
        <time>2016-03-16T14:55:21Z</time>
      </trkpt>
      <trkpt lat="43.56312" lon="3.29428">
        <ele>165.96</ele>
        <time>2016-03-16T14:55:30Z</time>
      </trkpt>
      <trkpt lat="43.56308" lon="3.29416">
        <ele>164.52</ele>
        <time>2016-03-16T14:55:38Z</time>
      </trkpt>
      <trkpt lat="43.56302" lon="3.29404">
        <ele>165</ele>
        <time>2016-03-16T14:55:44Z</time>
      </trkpt>
      <trkpt lat="43.56298" lon="3.29387">
        <ele>165</ele>
        <time>2016-03-16T14:55:53Z</time>
      </trkpt>
      <trkpt lat="43.56303" lon="3.29372">
        <ele>164.04</ele>
        <time>2016-03-16T14:55:59Z</time>
      </trkpt>
      <trkpt lat="43.56311" lon="3.29368">
        <ele>163.56</ele>
        <time>2016-03-16T14:56:10Z</time>
      </trkpt>
      <trkpt lat="43.56322" lon="3.29369">
        <ele>165.48</ele>
        <time>2016-03-16T14:56:20Z</time>
      </trkpt>
      <trkpt lat="43.56336" lon="3.29371">
        <ele>166.45</ele>
        <time>2016-03-16T14:56:30Z</time>
      </trkpt>
      <trkpt lat="43.56347" lon="3.29379">
        <ele>165.96</ele>
        <time>2016-03-16T14:56:40Z</time>
      </trkpt>
      <trkpt lat="43.56356" lon="3.29388">
        <ele>164.52</ele>
        <time>2016-03-16T14:56:50Z</time>
      </trkpt>
      <trkpt lat="43.56366" lon="3.29392">
        <ele>164.52</ele>
        <time>2016-03-16T14:57:09Z</time>
      </trkpt>
      <trkpt lat="43.56377" lon="3.29391">
        <ele>165</ele>
        <time>2016-03-16T14:57:17Z</time>
      </trkpt>
      <trkpt lat="43.56388" lon="3.29385">
        <ele>166.93</ele>
        <time>2016-03-16T14:57:25Z</time>
      </trkpt>
      <trkpt lat="43.56399" lon="3.29383">
        <ele>169.81</ele>
        <time>2016-03-16T14:57:32Z</time>
      </trkpt>
      <trkpt lat="43.56409" lon="3.29385">
        <ele>173.66</ele>
        <time>2016-03-16T14:57:41Z</time>
      </trkpt>
      <trkpt lat="43.56419" lon="3.29387">
        <ele>174.62</ele>
        <time>2016-03-16T14:57:49Z</time>
      </trkpt>
      <trkpt lat="43.56429" lon="3.29389">
        <ele>177.02</ele>
        <time>2016-03-16T14:57:58Z</time>
      </trkpt>
      <trkpt lat="43.5644" lon="3.29385">
        <ele>177.5</ele>
        <time>2016-03-16T14:58:05Z</time>
      </trkpt>
      <trkpt lat="43.56449" lon="3.29387">
        <ele>181.83</ele>
        <time>2016-03-16T14:58:12Z</time>
      </trkpt>
      <trkpt lat="43.5646" lon="3.29389">
        <ele>186.63</ele>
        <time>2016-03-16T14:58:23Z</time>
      </trkpt>
      <trkpt lat="43.56474" lon="3.29385">
        <ele>190.48</ele>
        <time>2016-03-16T14:58:32Z</time>
      </trkpt>
      <trkpt lat="43.56489" lon="3.29382">
        <ele>193.84</ele>
        <time>2016-03-16T14:58:44Z</time>
      </trkpt>
      <trkpt lat="43.56507" lon="3.2937">
        <ele>190.48</ele>
        <time>2016-03-16T14:58:55Z</time>
      </trkpt>
      <trkpt lat="43.56517" lon="3.29357">
        <ele>186.15</ele>
        <time>2016-03-16T14:59:02Z</time>
      </trkpt>
      <trkpt lat="43.56525" lon="3.29348">
        <ele>183.75</ele>
        <time>2016-03-16T14:59:09Z</time>
      </trkpt>
      <trkpt lat="43.56532" lon="3.29339">
        <ele>182.79</ele>
        <time>2016-03-16T14:59:16Z</time>
      </trkpt>
      <trkpt lat="43.56538" lon="3.29327">
        <ele>181.83</ele>
        <time>2016-03-16T14:59:22Z</time>
      </trkpt>
      <trkpt lat="43.56539" lon="3.29309">
        <ele>178.46</ele>
        <time>2016-03-16T14:59:32Z</time>
      </trkpt>
      <trkpt lat="43.56539" lon="3.29294">
        <ele>174.62</ele>
        <time>2016-03-16T14:59:41Z</time>
      </trkpt>
      <trkpt lat="43.5654" lon="3.29279">
        <ele>174.14</ele>
        <time>2016-03-16T14:59:49Z</time>
      </trkpt>
      <trkpt lat="43.56541" lon="3.29261">
        <ele>175.1</ele>
        <time>2016-03-16T14:59:59Z</time>
      </trkpt>
      <trkpt lat="43.56537" lon="3.29248">
        <ele>173.66</ele>
        <time>2016-03-16T15:00:19Z</time>
      </trkpt>
      <trkpt lat="43.56531" lon="3.29237">
        <ele>174.62</ele>
        <time>2016-03-16T15:01:45Z</time>
      </trkpt>
      <trkpt lat="43.56537" lon="3.29246">
        <ele>177.02</ele>
        <time>2016-03-16T15:03:50Z</time>
      </trkpt>
      <trkpt lat="43.56548" lon="3.29256">
        <ele>174.14</ele>
        <time>2016-03-16T15:04:06Z</time>
      </trkpt>
      <trkpt lat="43.5656" lon="3.29263">
        <ele>175.1</ele>
        <time>2016-03-16T15:04:14Z</time>
      </trkpt>
      <trkpt lat="43.56567" lon="3.29271">
        <ele>174.14</ele>
        <time>2016-03-16T15:04:20Z</time>
      </trkpt>
      <trkpt lat="43.56571" lon="3.29283">
        <ele>171.73</ele>
        <time>2016-03-16T15:04:29Z</time>
      </trkpt>
      <trkpt lat="43.56574" lon="3.29298">
        <ele>170.29</ele>
        <time>2016-03-16T15:04:37Z</time>
      </trkpt>
      <trkpt lat="43.56575" lon="3.29314">
        <ele>170.29</ele>
        <time>2016-03-16T15:04:45Z</time>
      </trkpt>
      <trkpt lat="43.56579" lon="3.29329">
        <ele>170.77</ele>
        <time>2016-03-16T15:04:53Z</time>
      </trkpt>
      <trkpt lat="43.56587" lon="3.29341">
        <ele>170.29</ele>
        <time>2016-03-16T15:05:01Z</time>
      </trkpt>
      <trkpt lat="43.56598" lon="3.29341">
        <ele>168.37</ele>
        <time>2016-03-16T15:05:10Z</time>
      </trkpt>
      <trkpt lat="43.5661" lon="3.29339">
        <ele>166.45</ele>
        <time>2016-03-16T15:05:18Z</time>
      </trkpt>
      <trkpt lat="43.56624" lon="3.29336">
        <ele>164.52</ele>
        <time>2016-03-16T15:05:26Z</time>
      </trkpt>
      <trkpt lat="43.56635" lon="3.29334">
        <ele>163.08</ele>
        <time>2016-03-16T15:05:33Z</time>
      </trkpt>
      <trkpt lat="43.56648" lon="3.29337">
        <ele>163.08</ele>
        <time>2016-03-16T15:05:42Z</time>
      </trkpt>
      <trkpt lat="43.56661" lon="3.2934">
        <ele>164.52</ele>
        <time>2016-03-16T15:05:51Z</time>
      </trkpt>
      <trkpt lat="43.56671" lon="3.29343">
        <ele>165</ele>
        <time>2016-03-16T15:05:58Z</time>
      </trkpt>
      <trkpt lat="43.56682" lon="3.29343">
        <ele>165</ele>
        <time>2016-03-16T15:06:07Z</time>
      </trkpt>
      <trkpt lat="43.56693" lon="3.29344">
        <ele>165</ele>
        <time>2016-03-16T15:06:15Z</time>
      </trkpt>
      <trkpt lat="43.56704" lon="3.29346">
        <ele>166.45</ele>
        <time>2016-03-16T15:06:23Z</time>
      </trkpt>
      <trkpt lat="43.56714" lon="3.29347">
        <ele>168.37</ele>
        <time>2016-03-16T15:06:30Z</time>
      </trkpt>
      <trkpt lat="43.56724" lon="3.29343">
        <ele>168.37</ele>
        <time>2016-03-16T15:06:36Z</time>
      </trkpt>
      <trkpt lat="43.56733" lon="3.29341">
        <ele>169.33</ele>
        <time>2016-03-16T15:06:41Z</time>
      </trkpt>
      <trkpt lat="43.56745" lon="3.29339">
        <ele>169.33</ele>
        <time>2016-03-16T15:06:49Z</time>
      </trkpt>
      <trkpt lat="43.56757" lon="3.2934">
        <ele>169.81</ele>
        <time>2016-03-16T15:06:57Z</time>
      </trkpt>
      <trkpt lat="43.56767" lon="3.29343">
        <ele>173.66</ele>
        <time>2016-03-16T15:07:05Z</time>
      </trkpt>
      <trkpt lat="43.56777" lon="3.29341">
        <ele>176.54</ele>
        <time>2016-03-16T15:07:12Z</time>
      </trkpt>
      <trkpt lat="43.56791" lon="3.29339">
        <ele>178.46</ele>
        <time>2016-03-16T15:07:24Z</time>
      </trkpt>
      <trkpt lat="43.56802" lon="3.29329">
        <ele>179.42</ele>
        <time>2016-03-16T15:07:31Z</time>
      </trkpt>
      <trkpt lat="43.56812" lon="3.29319">
        <ele>179.9</ele>
        <time>2016-03-16T15:07:38Z</time>
      </trkpt>
      <trkpt lat="43.5682" lon="3.29308">
        <ele>177.98</ele>
        <time>2016-03-16T15:07:44Z</time>
      </trkpt>
      <trkpt lat="43.56825" lon="3.29297">
        <ele>175.58</ele>
        <time>2016-03-16T15:07:51Z</time>
      </trkpt>
      <trkpt lat="43.56828" lon="3.29282">
        <ele>172.69</ele>
        <time>2016-03-16T15:08:00Z</time>
      </trkpt>
      <trkpt lat="43.56828" lon="3.29267">
        <ele>170.77</ele>
        <time>2016-03-16T15:08:07Z</time>
      </trkpt>
      <trkpt lat="43.56825" lon="3.29252">
        <ele>169.81</ele>
        <time>2016-03-16T15:08:14Z</time>
      </trkpt>
      <trkpt lat="43.56821" lon="3.29241">
        <ele>168.85</ele>
        <time>2016-03-16T15:08:20Z</time>
      </trkpt>
      <trkpt lat="43.56818" lon="3.29229">
        <ele>169.81</ele>
        <time>2016-03-16T15:08:26Z</time>
      </trkpt>
      <trkpt lat="43.56814" lon="3.29217">
        <ele>171.73</ele>
        <time>2016-03-16T15:08:32Z</time>
      </trkpt>
      <trkpt lat="43.5681" lon="3.29205">
        <ele>173.66</ele>
        <time>2016-03-16T15:08:38Z</time>
      </trkpt>
      <trkpt lat="43.56804" lon="3.29195">
        <ele>173.66</ele>
        <time>2016-03-16T15:08:44Z</time>
      </trkpt>
      <trkpt lat="43.56795" lon="3.29181">
        <ele>174.14</ele>
        <time>2016-03-16T15:08:55Z</time>
      </trkpt>
      <trkpt lat="43.56791" lon="3.29165">
        <ele>174.14</ele>
        <time>2016-03-16T15:09:05Z</time>
      </trkpt>
      <trkpt lat="43.5679" lon="3.29149">
        <ele>175.1</ele>
        <time>2016-03-16T15:09:12Z</time>
      </trkpt>
      <trkpt lat="43.56787" lon="3.29133">
        <ele>174.62</ele>
        <time>2016-03-16T15:09:19Z</time>
      </trkpt>
      <trkpt lat="43.56785" lon="3.29117">
        <ele>174.14</ele>
        <time>2016-03-16T15:09:27Z</time>
      </trkpt>
      <trkpt lat="43.56784" lon="3.29102">
        <ele>174.14</ele>
        <time>2016-03-16T15:09:36Z</time>
      </trkpt>
      <trkpt lat="43.56782" lon="3.29087">
        <ele>174.14</ele>
        <time>2016-03-16T15:09:45Z</time>
      </trkpt>
      <trkpt lat="43.56781" lon="3.29071">
        <ele>174.14</ele>
        <time>2016-03-16T15:09:54Z</time>
      </trkpt>
      <trkpt lat="43.56779" lon="3.29055">
        <ele>173.17</ele>
        <time>2016-03-16T15:10:03Z</time>
      </trkpt>
      <trkpt lat="43.56775" lon="3.29041">
        <ele>173.17</ele>
        <time>2016-03-16T15:10:10Z</time>
      </trkpt>
      <trkpt lat="43.56777" lon="3.29027">
        <ele>172.21</ele>
        <time>2016-03-16T15:10:16Z</time>
      </trkpt>
      <trkpt lat="43.56778" lon="3.2901">
        <ele>172.69</ele>
        <time>2016-03-16T15:10:26Z</time>
      </trkpt>
      <trkpt lat="43.56778" lon="3.28993">
        <ele>174.62</ele>
        <time>2016-03-16T15:10:35Z</time>
      </trkpt>
      <trkpt lat="43.56779" lon="3.28977">
        <ele>176.06</ele>
        <time>2016-03-16T15:10:42Z</time>
      </trkpt>
      <trkpt lat="43.56782" lon="3.28963">
        <ele>177.5</ele>
        <time>2016-03-16T15:10:49Z</time>
      </trkpt>
      <trkpt lat="43.56783" lon="3.28948">
        <ele>177.98</ele>
        <time>2016-03-16T15:10:57Z</time>
      </trkpt>
      <trkpt lat="43.56785" lon="3.28935">
        <ele>178.94</ele>
        <time>2016-03-16T15:11:03Z</time>
      </trkpt>
      <trkpt lat="43.56787" lon="3.28921">
        <ele>177.5</ele>
        <time>2016-03-16T15:11:11Z</time>
      </trkpt>
      <trkpt lat="43.56789" lon="3.28906">
        <ele>176.54</ele>
        <time>2016-03-16T15:11:20Z</time>
      </trkpt>
      <trkpt lat="43.5679" lon="3.28891">
        <ele>172.21</ele>
        <time>2016-03-16T15:11:30Z</time>
      </trkpt>
      <trkpt lat="43.56795" lon="3.28877">
        <ele>173.66</ele>
        <time>2016-03-16T15:11:38Z</time>
      </trkpt>
      <trkpt lat="43.56802" lon="3.28861">
        <ele>177.5</ele>
        <time>2016-03-16T15:11:47Z</time>
      </trkpt>
      <trkpt lat="43.56808" lon="3.28846">
        <ele>182.31</ele>
        <time>2016-03-16T15:11:56Z</time>
      </trkpt>
      <trkpt lat="43.56813" lon="3.28834">
        <ele>184.23</ele>
        <time>2016-03-16T15:12:05Z</time>
      </trkpt>
      <trkpt lat="43.56815" lon="3.28823">
        <ele>185.67</ele>
        <time>2016-03-16T15:12:20Z</time>
      </trkpt>
      <trkpt lat="43.56817" lon="3.28808">
        <ele>186.63</ele>
        <time>2016-03-16T15:12:29Z</time>
      </trkpt>
      <trkpt lat="43.56811" lon="3.28793">
        <ele>188.08</ele>
        <time>2016-03-16T15:12:39Z</time>
      </trkpt>
      <trkpt lat="43.56812" lon="3.28786">
        <ele>188.08</ele>
        <time>2016-03-16T15:12:56Z</time>
      </trkpt>
      <trkpt lat="43.56812" lon="3.28797">
        <ele>187.59</ele>
        <time>2016-03-16T15:13:05Z</time>
      </trkpt>
      <trkpt lat="43.56807" lon="3.28806">
        <ele>188.08</ele>
        <time>2016-03-16T15:13:13Z</time>
      </trkpt>
      <trkpt lat="43.56803" lon="3.2882">
        <ele>189.52</ele>
        <time>2016-03-16T15:13:19Z</time>
      </trkpt>
      <trkpt lat="43.56794" lon="3.2883">
        <ele>191.44</ele>
        <time>2016-03-16T15:13:26Z</time>
      </trkpt>
      <trkpt lat="43.56788" lon="3.2884">
        <ele>191.44</ele>
        <time>2016-03-16T15:13:34Z</time>
      </trkpt>
      <trkpt lat="43.56783" lon="3.28855">
        <ele>193.36</ele>
        <time>2016-03-16T15:13:42Z</time>
      </trkpt>
      <trkpt lat="43.56776" lon="3.28865">
        <ele>194.32</ele>
        <time>2016-03-16T15:13:50Z</time>
      </trkpt>
      <trkpt lat="43.56766" lon="3.28862">
        <ele>197.21</ele>
        <time>2016-03-16T15:13:58Z</time>
      </trkpt>
      <trkpt lat="43.56769" lon="3.2885">
        <ele>199.13</ele>
        <time>2016-03-16T15:14:07Z</time>
      </trkpt>
      <trkpt lat="43.56773" lon="3.28836">
        <ele>197.21</ele>
        <time>2016-03-16T15:14:16Z</time>
      </trkpt>
      <trkpt lat="43.56778" lon="3.28824">
        <ele>198.17</ele>
        <time>2016-03-16T15:14:23Z</time>
      </trkpt>
      <trkpt lat="43.56783" lon="3.28812">
        <ele>198.65</ele>
        <time>2016-03-16T15:14:29Z</time>
      </trkpt>
      <trkpt lat="43.56782" lon="3.28796">
        <ele>201.53</ele>
        <time>2016-03-16T15:14:38Z</time>
      </trkpt>
      <trkpt lat="43.56778" lon="3.28782">
        <ele>203.46</ele>
        <time>2016-03-16T15:14:46Z</time>
      </trkpt>
      <trkpt lat="43.56777" lon="3.28768">
        <ele>205.38</ele>
        <time>2016-03-16T15:14:55Z</time>
      </trkpt>
      <trkpt lat="43.56776" lon="3.28752">
        <ele>205.86</ele>
        <time>2016-03-16T15:15:06Z</time>
      </trkpt>
      <trkpt lat="43.56773" lon="3.28739">
        <ele>203.46</ele>
        <time>2016-03-16T15:15:15Z</time>
      </trkpt>
      <trkpt lat="43.56769" lon="3.28727">
        <ele>201.53</ele>
        <time>2016-03-16T15:15:27Z</time>
      </trkpt>
      <trkpt lat="43.56767" lon="3.28715">
        <ele>200.09</ele>
        <time>2016-03-16T15:15:56Z</time>
      </trkpt>
      <trkpt lat="43.56778" lon="3.28684">
        <ele>204.42</ele>
        <time>2016-03-16T15:16:10Z</time>
      </trkpt>
      <trkpt lat="43.56789" lon="3.2868">
        <ele>205.38</ele>
        <time>2016-03-16T15:16:15Z</time>
      </trkpt>
      <trkpt lat="43.56801" lon="3.28676">
        <ele>206.34</ele>
        <time>2016-03-16T15:16:22Z</time>
      </trkpt>
      <trkpt lat="43.56813" lon="3.28677">
        <ele>206.82</ele>
        <time>2016-03-16T15:16:32Z</time>
      </trkpt>
      <trkpt lat="43.56824" lon="3.28675">
        <ele>205.38</ele>
        <time>2016-03-16T15:16:40Z</time>
      </trkpt>
      <trkpt lat="43.56836" lon="3.28684">
        <ele>210.19</ele>
        <time>2016-03-16T15:16:51Z</time>
      </trkpt>
      <trkpt lat="43.56848" lon="3.28684">
        <ele>211.15</ele>
        <time>2016-03-16T15:16:58Z</time>
      </trkpt>
      <trkpt lat="43.56859" lon="3.28688">
        <ele>211.15</ele>
        <time>2016-03-16T15:17:07Z</time>
      </trkpt>
      <trkpt lat="43.56869" lon="3.28691">
        <ele>213.07</ele>
        <time>2016-03-16T15:17:15Z</time>
      </trkpt>
      <trkpt lat="43.56876" lon="3.28688">
        <ele>217.88</ele>
        <time>2016-03-16T15:17:23Z</time>
      </trkpt>
      <trkpt lat="43.56879" lon="3.28677">
        <ele>221.24</ele>
        <time>2016-03-16T15:17:31Z</time>
      </trkpt>
      <trkpt lat="43.56874" lon="3.28663">
        <ele>224.12</ele>
        <time>2016-03-16T15:17:39Z</time>
      </trkpt>
      <trkpt lat="43.56869" lon="3.28652">
        <ele>223.64</ele>
        <time>2016-03-16T15:17:46Z</time>
      </trkpt>
      <trkpt lat="43.56863" lon="3.28637">
        <ele>224.12</ele>
        <time>2016-03-16T15:17:56Z</time>
      </trkpt>
      <trkpt lat="43.56858" lon="3.28623">
        <ele>225.57</ele>
        <time>2016-03-16T15:18:04Z</time>
      </trkpt>
      <trkpt lat="43.56853" lon="3.28628">
        <ele>228.45</ele>
        <time>2016-03-16T15:18:13Z</time>
      </trkpt>
      <trkpt lat="43.56853" lon="3.28643">
        <ele>231.81</ele>
        <time>2016-03-16T15:18:23Z</time>
      </trkpt>
      <trkpt lat="43.56845" lon="3.28652">
        <ele>232.78</ele>
        <time>2016-03-16T15:18:31Z</time>
      </trkpt>
      <trkpt lat="43.56835" lon="3.28651">
        <ele>233.26</ele>
        <time>2016-03-16T15:18:38Z</time>
      </trkpt>
      <trkpt lat="43.56827" lon="3.28646">
        <ele>235.18</ele>
        <time>2016-03-16T15:18:45Z</time>
      </trkpt>
      <trkpt lat="43.5682" lon="3.28636">
        <ele>238.06</ele>
        <time>2016-03-16T15:18:54Z</time>
      </trkpt>
      <trkpt lat="43.56814" lon="3.28625">
        <ele>241.43</ele>
        <time>2016-03-16T15:19:04Z</time>
      </trkpt>
      <trkpt lat="43.56806" lon="3.28612">
        <ele>242.39</ele>
        <time>2016-03-16T15:19:16Z</time>
      </trkpt>
      <trkpt lat="43.56799" lon="3.28601">
        <ele>241.91</ele>
        <time>2016-03-16T15:19:25Z</time>
      </trkpt>
      <trkpt lat="43.56791" lon="3.28592">
        <ele>242.39</ele>
        <time>2016-03-16T15:19:32Z</time>
      </trkpt>
      <trkpt lat="43.56783" lon="3.28582">
        <ele>243.83</ele>
        <time>2016-03-16T15:19:41Z</time>
      </trkpt>
      <trkpt lat="43.56774" lon="3.28574">
        <ele>244.31</ele>
        <time>2016-03-16T15:19:48Z</time>
      </trkpt>
      <trkpt lat="43.56767" lon="3.28564">
        <ele>246.23</ele>
        <time>2016-03-16T15:19:56Z</time>
      </trkpt>
      <trkpt lat="43.56762" lon="3.28553">
        <ele>247.68</ele>
        <time>2016-03-16T15:20:04Z</time>
      </trkpt>
      <trkpt lat="43.56753" lon="3.28545">
        <ele>247.68</ele>
        <time>2016-03-16T15:20:12Z</time>
      </trkpt>
      <trkpt lat="43.56747" lon="3.28536">
        <ele>247.68</ele>
        <time>2016-03-16T15:20:19Z</time>
      </trkpt>
      <trkpt lat="43.5674" lon="3.28525">
        <ele>250.08</ele>
        <time>2016-03-16T15:20:27Z</time>
      </trkpt>
      <trkpt lat="43.56732" lon="3.28516">
        <ele>252.48</ele>
        <time>2016-03-16T15:20:37Z</time>
      </trkpt>
      <trkpt lat="43.56727" lon="3.28507">
        <ele>252</ele>
        <time>2016-03-16T15:20:45Z</time>
      </trkpt>
      <trkpt lat="43.56721" lon="3.28493">
        <ele>253.44</ele>
        <time>2016-03-16T15:20:54Z</time>
      </trkpt>
      <trkpt lat="43.56716" lon="3.28487">
        <ele>254.41</ele>
        <time>2016-03-16T15:21:02Z</time>
      </trkpt>
      <trkpt lat="43.56712" lon="3.28499">
        <ele>252.96</ele>
        <time>2016-03-16T15:21:11Z</time>
      </trkpt>
      <trkpt lat="43.56708" lon="3.28513">
        <ele>252.96</ele>
        <time>2016-03-16T15:21:18Z</time>
      </trkpt>
      <trkpt lat="43.56704" lon="3.28526">
        <ele>251.04</ele>
        <time>2016-03-16T15:21:25Z</time>
      </trkpt>
      <trkpt lat="43.56697" lon="3.28543">
        <ele>249.6</ele>
        <time>2016-03-16T15:21:35Z</time>
      </trkpt>
      <trkpt lat="43.5669" lon="3.28556">
        <ele>247.2</ele>
        <time>2016-03-16T15:21:45Z</time>
      </trkpt>
      <trkpt lat="43.56684" lon="3.28567">
        <ele>248.64</ele>
        <time>2016-03-16T15:21:51Z</time>
      </trkpt>
      <trkpt lat="43.56675" lon="3.28575">
        <ele>250.08</ele>
        <time>2016-03-16T15:21:58Z</time>
      </trkpt>
      <trkpt lat="43.56668" lon="3.28585">
        <ele>252</ele>
        <time>2016-03-16T15:22:06Z</time>
      </trkpt>
      <trkpt lat="43.56657" lon="3.28597">
        <ele>252.48</ele>
        <time>2016-03-16T15:22:15Z</time>
      </trkpt>
      <trkpt lat="43.56649" lon="3.28605">
        <ele>255.37</ele>
        <time>2016-03-16T15:22:22Z</time>
      </trkpt>
      <trkpt lat="43.5664" lon="3.28616">
        <ele>255.37</ele>
        <time>2016-03-16T15:22:31Z</time>
      </trkpt>
      <trkpt lat="43.5663" lon="3.28626">
        <ele>252.48</ele>
        <time>2016-03-16T15:22:40Z</time>
      </trkpt>
      <trkpt lat="43.56618" lon="3.28634">
        <ele>250.08</ele>
        <time>2016-03-16T15:22:48Z</time>
      </trkpt>
      <trkpt lat="43.56608" lon="3.28639">
        <ele>247.2</ele>
        <time>2016-03-16T15:22:55Z</time>
      </trkpt>
      <trkpt lat="43.56598" lon="3.28644">
        <ele>248.16</ele>
        <time>2016-03-16T15:23:02Z</time>
      </trkpt>
      <trkpt lat="43.5659" lon="3.28653">
        <ele>247.68</ele>
        <time>2016-03-16T15:23:11Z</time>
      </trkpt>
      <trkpt lat="43.56582" lon="3.28664">
        <ele>249.12</ele>
        <time>2016-03-16T15:23:19Z</time>
      </trkpt>
      <trkpt lat="43.56575" lon="3.28676">
        <ele>251.04</ele>
        <time>2016-03-16T15:23:27Z</time>
      </trkpt>
      <trkpt lat="43.56568" lon="3.28687">
        <ele>252.48</ele>
        <time>2016-03-16T15:23:35Z</time>
      </trkpt>
      <trkpt lat="43.56559" lon="3.28697">
        <ele>253.93</ele>
        <time>2016-03-16T15:23:42Z</time>
      </trkpt>
      <trkpt lat="43.5655" lon="3.28706">
        <ele>253.93</ele>
        <time>2016-03-16T15:23:50Z</time>
      </trkpt>
      <trkpt lat="43.56544" lon="3.28718">
        <ele>254.41</ele>
        <time>2016-03-16T15:23:57Z</time>
      </trkpt>
      <trkpt lat="43.56538" lon="3.28732">
        <ele>255.85</ele>
        <time>2016-03-16T15:24:06Z</time>
      </trkpt>
      <trkpt lat="43.56531" lon="3.28743">
        <ele>256.81</ele>
        <time>2016-03-16T15:24:14Z</time>
      </trkpt>
      <trkpt lat="43.56527" lon="3.28755">
        <ele>256.81</ele>
        <time>2016-03-16T15:24:21Z</time>
      </trkpt>
      <trkpt lat="43.56522" lon="3.28769">
        <ele>256.81</ele>
        <time>2016-03-16T15:24:30Z</time>
      </trkpt>
      <trkpt lat="43.56517" lon="3.28783">
        <ele>256.33</ele>
        <time>2016-03-16T15:24:37Z</time>
      </trkpt>
      <trkpt lat="43.5651" lon="3.28793">
        <ele>256.81</ele>
        <time>2016-03-16T15:24:44Z</time>
      </trkpt>
      <trkpt lat="43.56502" lon="3.28794">
        <ele>256.81</ele>
        <time>2016-03-16T15:24:54Z</time>
      </trkpt>
      <trkpt lat="43.5649" lon="3.28794">
        <ele>255.37</ele>
        <time>2016-03-16T15:25:05Z</time>
      </trkpt>
      <trkpt lat="43.56478" lon="3.2879">
        <ele>254.89</ele>
        <time>2016-03-16T15:25:14Z</time>
      </trkpt>
      <trkpt lat="43.56466" lon="3.28792">
        <ele>253.93</ele>
        <time>2016-03-16T15:25:23Z</time>
      </trkpt>
      <trkpt lat="43.56457" lon="3.28797">
        <ele>254.41</ele>
        <time>2016-03-16T15:25:32Z</time>
      </trkpt>
      <trkpt lat="43.56457" lon="3.28799">
        <ele>253.93</ele>
        <time>2016-03-16T15:25:46Z</time>
      </trkpt>
      <trkpt lat="43.56466" lon="3.28793">
        <ele>252</ele>
        <time>2016-03-16T15:25:55Z</time>
      </trkpt>
      <trkpt lat="43.56477" lon="3.2879">
        <ele>252</ele>
        <time>2016-03-16T15:26:03Z</time>
      </trkpt>
      <trkpt lat="43.56491" lon="3.28794">
        <ele>252</ele>
        <time>2016-03-16T15:26:18Z</time>
      </trkpt>
      <trkpt lat="43.56497" lon="3.28804">
        <ele>250.08</ele>
        <time>2016-03-16T15:26:28Z</time>
      </trkpt>
      <trkpt lat="43.56495" lon="3.28819">
        <ele>250.08</ele>
        <time>2016-03-16T15:26:36Z</time>
      </trkpt>
      <trkpt lat="43.56487" lon="3.28828">
        <ele>250.08</ele>
        <time>2016-03-16T15:26:45Z</time>
      </trkpt>
      <trkpt lat="43.56477" lon="3.28832">
        <ele>249.12</ele>
        <time>2016-03-16T15:26:52Z</time>
      </trkpt>
      <trkpt lat="43.56467" lon="3.28839">
        <ele>248.64</ele>
        <time>2016-03-16T15:27:00Z</time>
      </trkpt>
      <trkpt lat="43.56459" lon="3.28849">
        <ele>247.2</ele>
        <time>2016-03-16T15:27:06Z</time>
      </trkpt>
      <trkpt lat="43.56455" lon="3.28861">
        <ele>245.27</ele>
        <time>2016-03-16T15:27:12Z</time>
      </trkpt>
      <trkpt lat="43.56449" lon="3.28873">
        <ele>244.31</ele>
        <time>2016-03-16T15:27:19Z</time>
      </trkpt>
      <trkpt lat="43.56443" lon="3.28885">
        <ele>244.79</ele>
        <time>2016-03-16T15:27:27Z</time>
      </trkpt>
      <trkpt lat="43.56434" lon="3.28894">
        <ele>244.79</ele>
        <time>2016-03-16T15:27:35Z</time>
      </trkpt>
      <trkpt lat="43.56425" lon="3.28902">
        <ele>242.39</ele>
        <time>2016-03-16T15:27:43Z</time>
      </trkpt>
      <trkpt lat="43.56415" lon="3.28915">
        <ele>245.27</ele>
        <time>2016-03-16T15:27:50Z</time>
      </trkpt>
      <trkpt lat="43.56405" lon="3.28925">
        <ele>247.2</ele>
        <time>2016-03-16T15:27:57Z</time>
      </trkpt>
      <trkpt lat="43.56396" lon="3.28933">
        <ele>247.2</ele>
        <time>2016-03-16T15:28:04Z</time>
      </trkpt>
      <trkpt lat="43.56387" lon="3.28939">
        <ele>246.23</ele>
        <time>2016-03-16T15:28:11Z</time>
      </trkpt>
      <trkpt lat="43.56377" lon="3.28945">
        <ele>245.75</ele>
        <time>2016-03-16T15:28:19Z</time>
      </trkpt>
      <trkpt lat="43.56367" lon="3.2895">
        <ele>246.23</ele>
        <time>2016-03-16T15:28:26Z</time>
      </trkpt>
      <trkpt lat="43.56358" lon="3.28955">
        <ele>247.2</ele>
        <time>2016-03-16T15:28:32Z</time>
      </trkpt>
      <trkpt lat="43.56349" lon="3.28961">
        <ele>248.64</ele>
        <time>2016-03-16T15:28:39Z</time>
      </trkpt>
      <trkpt lat="43.56341" lon="3.28969">
        <ele>248.64</ele>
        <time>2016-03-16T15:28:46Z</time>
      </trkpt>
      <trkpt lat="43.56331" lon="3.28976">
        <ele>248.64</ele>
        <time>2016-03-16T15:28:53Z</time>
      </trkpt>
      <trkpt lat="43.5632" lon="3.2898">
        <ele>249.12</ele>
        <time>2016-03-16T15:29:00Z</time>
      </trkpt>
      <trkpt lat="43.56311" lon="3.28985">
        <ele>249.6</ele>
        <time>2016-03-16T15:29:07Z</time>
      </trkpt>
      <trkpt lat="43.563" lon="3.28993">
        <ele>250.56</ele>
        <time>2016-03-16T15:29:16Z</time>
      </trkpt>
      <trkpt lat="43.56289" lon="3.28999">
        <ele>251.04</ele>
        <time>2016-03-16T15:29:23Z</time>
      </trkpt>
      <trkpt lat="43.56283" lon="3.29013">
        <ele>250.56</ele>
        <time>2016-03-16T15:29:31Z</time>
      </trkpt>
      <trkpt lat="43.56282" lon="3.2903">
        <ele>245.75</ele>
        <time>2016-03-16T15:29:46Z</time>
      </trkpt>
      <trkpt lat="43.56279" lon="3.2905">
        <ele>241.43</ele>
        <time>2016-03-16T15:29:57Z</time>
      </trkpt>
      <trkpt lat="43.56267" lon="3.29066">
        <ele>237.58</ele>
        <time>2016-03-16T15:30:11Z</time>
      </trkpt>
      <trkpt lat="43.56252" lon="3.29072">
        <ele>237.1</ele>
        <time>2016-03-16T15:30:26Z</time>
      </trkpt>
      <trkpt lat="43.56243" lon="3.29085">
        <ele>237.1</ele>
        <time>2016-03-16T15:30:36Z</time>
      </trkpt>
      <trkpt lat="43.56234" lon="3.29096">
        <ele>235.18</ele>
        <time>2016-03-16T15:30:52Z</time>
      </trkpt>
      <trkpt lat="43.56228" lon="3.29114">
        <ele>233.26</ele>
        <time>2016-03-16T15:31:02Z</time>
      </trkpt>
      <trkpt lat="43.56216" lon="3.29131">
        <ele>233.74</ele>
        <time>2016-03-16T15:31:20Z</time>
      </trkpt>
      <trkpt lat="43.56204" lon="3.29148">
        <ele>230.85</ele>
        <time>2016-03-16T15:31:32Z</time>
      </trkpt>
      <trkpt lat="43.56191" lon="3.29166">
        <ele>229.41</ele>
        <time>2016-03-16T15:31:50Z</time>
      </trkpt>
      <trkpt lat="43.56178" lon="3.29188">
        <ele>225.09</ele>
        <time>2016-03-16T15:32:06Z</time>
      </trkpt>
      <trkpt lat="43.56168" lon="3.29208">
        <ele>223.16</ele>
        <time>2016-03-16T15:32:17Z</time>
      </trkpt>
      <trkpt lat="43.56164" lon="3.29223">
        <ele>219.8</ele>
        <time>2016-03-16T15:32:27Z</time>
      </trkpt>
      <trkpt lat="43.5616" lon="3.29247">
        <ele>218.84</ele>
        <time>2016-03-16T15:32:39Z</time>
      </trkpt>
      <trkpt lat="43.56154" lon="3.29271">
        <ele>224.12</ele>
        <time>2016-03-16T15:32:56Z</time>
      </trkpt>
      <trkpt lat="43.5615" lon="3.29288">
        <ele>223.64</ele>
        <time>2016-03-16T15:33:06Z</time>
      </trkpt>
      <trkpt lat="43.56151" lon="3.29304">
        <ele>220.28</ele>
        <time>2016-03-16T15:33:17Z</time>
      </trkpt>
      <trkpt lat="43.56149" lon="3.29327">
        <ele>215.95</ele>
        <time>2016-03-16T15:33:37Z</time>
      </trkpt>
      <trkpt lat="43.56149" lon="3.29342">
        <ele>215.95</ele>
        <time>2016-03-16T15:34:06Z</time>
      </trkpt>
      <trkpt lat="43.56162" lon="3.29337">
        <ele>215.47</ele>
        <time>2016-03-16T15:34:50Z</time>
      </trkpt>
      <trkpt lat="43.5617" lon="3.29331">
        <ele>215.47</ele>
        <time>2016-03-16T15:35:51Z</time>
      </trkpt>
      <trkpt lat="43.5617" lon="3.29332">
        <ele>218.36</ele>
        <time>2016-03-16T15:48:38Z</time>
      </trkpt>
      <trkpt lat="43.56154" lon="3.29322">
        <ele>216.91</ele>
        <time>2016-03-16T15:49:06Z</time>
      </trkpt>
      <trkpt lat="43.56149" lon="3.29327">
        <ele>219.32</ele>
        <time>2016-03-16T15:49:28Z</time>
      </trkpt>
      <trkpt lat="43.56142" lon="3.2934">
        <ele>212.11</ele>
        <time>2016-03-16T15:49:43Z</time>
      </trkpt>
      <trkpt lat="43.56132" lon="3.29363">
        <ele>208.74</ele>
        <time>2016-03-16T15:50:00Z</time>
      </trkpt>
      <trkpt lat="43.56121" lon="3.2939">
        <ele>202.01</ele>
        <time>2016-03-16T15:50:17Z</time>
      </trkpt>
      <trkpt lat="43.56104" lon="3.29413">
        <ele>198.17</ele>
        <time>2016-03-16T15:50:32Z</time>
      </trkpt>
      <trkpt lat="43.56093" lon="3.29435">
        <ele>197.69</ele>
        <time>2016-03-16T15:50:45Z</time>
      </trkpt>
      <trkpt lat="43.56082" lon="3.29448">
        <ele>193.84</ele>
        <time>2016-03-16T15:50:59Z</time>
      </trkpt>
      <trkpt lat="43.56072" lon="3.29462">
        <ele>191.92</ele>
        <time>2016-03-16T15:51:18Z</time>
      </trkpt>
      <trkpt lat="43.56062" lon="3.29479">
        <ele>188.08</ele>
        <time>2016-03-16T15:51:33Z</time>
      </trkpt>
      <trkpt lat="43.5605" lon="3.29501">
        <ele>183.27</ele>
        <time>2016-03-16T15:51:51Z</time>
      </trkpt>
      <trkpt lat="43.56036" lon="3.29522">
        <ele>178.94</ele>
        <time>2016-03-16T15:52:11Z</time>
      </trkpt>
      <trkpt lat="43.56026" lon="3.2954">
        <ele>176.06</ele>
        <time>2016-03-16T15:52:22Z</time>
      </trkpt>
      <trkpt lat="43.56016" lon="3.29559">
        <ele>177.98</ele>
        <time>2016-03-16T15:52:31Z</time>
      </trkpt>
      <trkpt lat="43.56005" lon="3.29569">
        <ele>177.5</ele>
        <time>2016-03-16T15:52:45Z</time>
      </trkpt>
      <trkpt lat="43.55996" lon="3.29579">
        <ele>175.58</ele>
        <time>2016-03-16T15:53:04Z</time>
      </trkpt>
      <trkpt lat="43.55986" lon="3.29601">
        <ele>173.66</ele>
        <time>2016-03-16T15:53:14Z</time>
      </trkpt>
      <trkpt lat="43.55981" lon="3.29603">
        <ele>173.17</ele>
        <time>2016-03-16T15:53:34Z</time>
      </trkpt>
      <trkpt lat="43.55969" lon="3.29615">
        <ele>168.37</ele>
        <time>2016-03-16T15:53:50Z</time>
      </trkpt>
      <trkpt lat="43.55965" lon="3.29625">
        <ele>167.41</ele>
        <time>2016-03-16T15:54:00Z</time>
      </trkpt>
      <trkpt lat="43.55968" lon="3.29638">
        <ele>169.81</ele>
        <time>2016-03-16T15:54:14Z</time>
      </trkpt>
      <trkpt lat="43.55976" lon="3.29649">
        <ele>169.33</ele>
        <time>2016-03-16T15:54:36Z</time>
      </trkpt>
      <trkpt lat="43.5598" lon="3.29663">
        <ele>169.81</ele>
        <time>2016-03-16T15:55:17Z</time>
      </trkpt>
      <trkpt lat="43.5598" lon="3.29664">
        <ele>171.25</ele>
        <time>2016-03-16T15:55:45Z</time>
      </trkpt>
      <trkpt lat="43.55981" lon="3.29675">
        <ele>172.21</ele>
        <time>2016-03-16T15:56:00Z</time>
      </trkpt>
      <trkpt lat="43.55987" lon="3.29682">
        <ele>169.33</ele>
        <time>2016-03-16T15:56:14Z</time>
      </trkpt>
      <trkpt lat="43.55993" lon="3.29699">
        <ele>165.96</ele>
        <time>2016-03-16T15:56:25Z</time>
      </trkpt>
      <trkpt lat="43.55999" lon="3.29712">
        <ele>164.04</ele>
        <time>2016-03-16T15:56:34Z</time>
      </trkpt>
      <trkpt lat="43.56005" lon="3.29721">
        <ele>161.64</ele>
        <time>2016-03-16T15:56:58Z</time>
      </trkpt>
      <trkpt lat="43.56003" lon="3.29722">
        <ele>162.12</ele>
        <time>2016-03-16T15:57:13Z</time>
      </trkpt>
      <trkpt lat="43.55997" lon="3.29709">
        <ele>161.16</ele>
        <time>2016-03-16T15:57:23Z</time>
      </trkpt>
      <trkpt lat="43.55994" lon="3.29696">
        <ele>158.75</ele>
        <time>2016-03-16T15:57:31Z</time>
      </trkpt>
      <trkpt lat="43.55985" lon="3.29684">
        <ele>160.68</ele>
        <time>2016-03-16T15:57:42Z</time>
      </trkpt>
      <trkpt lat="43.55984" lon="3.2967">
        <ele>162.12</ele>
        <time>2016-03-16T15:57:53Z</time>
      </trkpt>
      <trkpt lat="43.5598" lon="3.29657">
        <ele>163.08</ele>
        <time>2016-03-16T15:58:03Z</time>
      </trkpt>
      <trkpt lat="43.55972" lon="3.29647">
        <ele>163.56</ele>
        <time>2016-03-16T15:58:10Z</time>
      </trkpt>
      <trkpt lat="43.55962" lon="3.29639">
        <ele>165.48</ele>
        <time>2016-03-16T15:58:17Z</time>
      </trkpt>
      <trkpt lat="43.55951" lon="3.29638">
        <ele>167.41</ele>
        <time>2016-03-16T15:58:26Z</time>
      </trkpt>
      <trkpt lat="43.55941" lon="3.29639">
        <ele>166.93</ele>
        <time>2016-03-16T15:58:43Z</time>
      </trkpt>
      <trkpt lat="43.55929" lon="3.29637">
        <ele>164.04</ele>
        <time>2016-03-16T15:58:56Z</time>
      </trkpt>
      <trkpt lat="43.55919" lon="3.29636">
        <ele>161.64</ele>
        <time>2016-03-16T15:59:35Z</time>
      </trkpt>
      <trkpt lat="43.55908" lon="3.29637">
        <ele>158.75</ele>
        <time>2016-03-16T15:59:46Z</time>
      </trkpt>
      <trkpt lat="43.559" lon="3.2963">
        <ele>153.47</ele>
        <time>2016-03-16T16:00:13Z</time>
      </trkpt>
      <trkpt lat="43.55893" lon="3.29633">
        <ele>150.1</ele>
        <time>2016-03-16T16:00:24Z</time>
      </trkpt>
      <trkpt lat="43.55884" lon="3.29629">
        <ele>147.7</ele>
        <time>2016-03-16T16:00:33Z</time>
      </trkpt>
      <trkpt lat="43.55874" lon="3.29627">
        <ele>145.78</ele>
        <time>2016-03-16T16:00:40Z</time>
      </trkpt>
      <trkpt lat="43.55862" lon="3.29629">
        <ele>143.37</ele>
        <time>2016-03-16T16:00:50Z</time>
      </trkpt>
      <trkpt lat="43.55851" lon="3.29625">
        <ele>142.41</ele>
        <time>2016-03-16T16:00:58Z</time>
      </trkpt>
      <trkpt lat="43.55842" lon="3.2962">
        <ele>141.93</ele>
        <time>2016-03-16T16:01:05Z</time>
      </trkpt>
      <trkpt lat="43.55832" lon="3.29616">
        <ele>140.01</ele>
        <time>2016-03-16T16:01:17Z</time>
      </trkpt>
      <trkpt lat="43.55824" lon="3.29608">
        <ele>139.53</ele>
        <time>2016-03-16T16:01:25Z</time>
      </trkpt>
      <trkpt lat="43.55813" lon="3.29603">
        <ele>138.09</ele>
        <time>2016-03-16T16:01:33Z</time>
      </trkpt>
      <trkpt lat="43.55803" lon="3.29596">
        <ele>136.64</ele>
        <time>2016-03-16T16:01:43Z</time>
      </trkpt>
      <trkpt lat="43.55804" lon="3.29594">
        <ele>139.05</ele>
        <time>2016-03-16T16:02:09Z</time>
      </trkpt>
    </trkseg>
  </trk>
</gpx>